Time;durP1;ratioP1;P1;durP2;ratioP2;P2;SDS_P1;SDS_P2;PMS_P1;PMS_P2;Temp;Humidity;BMP_temperature;BMP_pressure;BME280_temperature;BME280_humidity;BME280_pressure;Samples;Min_cycle;Max_cycle;Signal;HPM_P1;HPM_P2
2023/12/10 00:02:49;;;;;;;13.17;8.00;;;;;;;;;;5998603;29;20305;-69
2023/12/10 00:05:53;;;;;;;9.00;7.00;;;;;;;;;;5988766;29;20376;-69
2023/12/10 00:09:14;;;;;;;9.37;7.10;;;;;;;;;;5990631;29;20303;-68
2023/12/10 00:12:19;;;;;;;12.17;7.23;;;;;;;;;;6020386;29;20296;-68
2023/12/10 00:15:23;;;;;;;8.93;6.73;;;;;;;;;;6020555;29;20298;-68
2023/12/10 00:18:27;;;;;;;11.17;7.50;;;;;;;;;;6020637;29;20296;-69
2023/12/10 00:21:31;;;;;;;13.77;8.37;;;;;;;;;;6019254;29;20584;-68
2023/12/10 00:24:35;;;;;;;10.20;6.53;;;;;;;;;;6010501;29;20307;-70
2023/12/10 00:27:40;;;;;;;9.87;7.20;;;;;;;;;;6028047;29;20299;-68
2023/12/10 00:30:45;;;;;;;8.33;7.33;;;;;;;;;;6013582;29;20327;-68
2023/12/10 00:33:50;;;;;;;11.53;7.40;;;;;;;;;;6025436;29;20578;-70
2023/12/10 00:36:54;;;;;;;12.90;7.83;;;;;;;;;;6021518;29;20299;-68
2023/12/10 00:39:59;;;;;;;11.13;7.53;;;;;;;;;;6025908;29;20485;-69
2023/12/10 00:43:04;;;;;;;12.27;7.80;;;;;;;;;;6029746;29;20631;-68
2023/12/10 00:46:09;;;;;;;11.73;7.70;;;;;;;;;;6034058;29;20328;-68
2023/12/10 00:49:12;;;;;;;11.90;8.03;;;;;;;;;;6028747;29;20316;-69
2023/12/10 00:52:17;;;;;;;12.13;8.60;;;;;;;;;;6020723;29;20305;-69
2023/12/10 00:55:21;;;;;;;11.57;8.00;;;;;;;;;;6028123;29;20304;-68
2023/12/10 00:58:26;;;;;;;13.20;8.60;;;;;;;;;;6023630;29;20302;-68
2023/12/10 01:01:30;;;;;;;15.03;8.43;;;;;;;;;;6028439;29;20307;-68
2023/12/10 01:04:35;;;;;;;12.73;8.50;;;;;;;;;;6027669;29;20312;-69
2023/12/10 01:07:39;;;;;;;13.43;9.03;;;;;;;;;;6027790;29;20308;-70
2023/12/10 01:10:43;;;;;;;13.70;9.17;;;;;;;;;;6018715;29;20302;-69
2023/12/10 01:13:48;;;;;;;12.90;8.93;;;;;;;;;;6005061;29;20288;-68
2023/12/10 01:16:52;;;;;;;17.37;9.90;;;;;;;;;;6005333;29;20329;-69
2023/12/10 01:19:56;;;;;;;17.00;9.77;;;;;;;;;;6004863;29;20425;-70
2023/12/10 01:23:00;;;;;;;15.60;9.50;;;;;;;;;;5987241;29;20310;-68
2023/12/10 01:26:06;;;;;;;18.67;10.80;;;;;;;;;;5997613;29;20326;-69
2023/12/10 01:29:11;;;;;;;16.60;9.73;;;;;;;;;;5995133;29;20299;-69
2023/12/10 01:32:15;;;;;;;14.00;9.87;;;;;;;;;;6005425;29;20308;-69
2023/12/10 01:35:19;;;;;;;16.53;10.67;;;;;;;;;;5994519;29;20319;-68
2023/12/10 01:38:23;;;;;;;15.83;10.80;;;;;;;;;;6010157;29;20317;-68
2023/12/10 01:41:27;;;;;;;15.87;9.80;;;;;;;;;;6005916;29;20303;-68
2023/12/10 01:44:32;;;;;;;16.40;10.73;;;;;;;;;;6019452;29;20322;-69
2023/12/10 01:47:37;;;;;;;13.47;9.27;;;;;;;;;;6032366;29;20314;-69
2023/12/10 01:50:41;;;;;;;14.23;10.10;;;;;;;;;;6035345;29;20352;-69
2023/12/10 01:53:45;;;;;;;16.30;10.40;;;;;;;;;;6017103;29;20319;-69
2023/12/10 01:56:50;;;;;;;18.13;10.80;;;;;;;;;;6024472;29;20625;-69
2023/12/10 02:00:12;;;;;;;16.77;10.63;;;;;;;;;;6023535;29;20304;-68
2023/12/10 02:03:16;;;;;;;17.70;10.97;;;;;;;;;;6023124;29;20312;-68
2023/12/10 02:06:22;;;;;;;16.80;10.40;;;;;;;;;;6001384;29;20305;-68
2023/12/10 02:09:26;;;;;;;15.20;10.80;;;;;;;;;;5992952;29;20488;-69
2023/12/10 02:12:31;;;;;;;14.40;10.00;;;;;;;;;;6023561;29;20567;-69
2023/12/10 02:15:37;;;;;;;16.63;11.07;;;;;;;;;;6024090;29;20292;-69
2023/12/10 02:18:41;;;;;;;16.67;11.57;;;;;;;;;;6023089;29;20551;-69
2023/12/10 02:21:47;;;;;;;17.60;11.93;;;;;;;;;;6022316;29;20302;-69
2023/12/10 02:24:52;;;;;;;18.20;10.63;;;;;;;;;;6034037;29;20248;-68
2023/12/10 02:27:58;;;;;;;18.03;11.03;;;;;;;;;;6023520;29;20313;-69
2023/12/10 02:31:03;;;;;;;19.10;11.27;;;;;;;;;;6028322;29;20311;-69
2023/12/10 02:34:07;;;;;;;19.27;11.50;;;;;;;;;;6023378;29;20310;-69
2023/12/10 02:37:11;;;;;;;17.43;10.50;;;;;;;;;;6023837;29;20304;-69
2023/12/10 02:40:16;;;;;;;18.47;11.13;;;;;;;;;;5992937;29;20303;-69
2023/12/10 02:43:22;;;;;;;18.00;11.70;;;;;;;;;;6008283;29;20294;-68
2023/12/10 02:46:26;;;;;;;16.63;11.37;;;;;;;;;;5998569;29;20309;-68
2023/12/10 02:49:30;;;;;;;19.93;11.43;;;;;;;;;;6006912;29;20303;-69
2023/12/10 02:52:35;;;;;;;19.73;11.70;;;;;;;;;;5999983;29;20303;-68
2023/12/10 02:55:39;;;;;;;17.93;11.17;;;;;;;;;;5990356;29;20606;-68
2023/12/10 02:58:44;;;;;;;18.73;11.03;;;;;;;;;;6006035;29;20307;-68
2023/12/10 03:01:49;;;;;;;19.20;11.20;;;;;;;;;;6021793;29;20295;-70
2023/12/10 03:04:52;;;;;;;18.13;11.53;;;;;;;;;;6012365;29;20326;-68
2023/12/10 03:07:56;;;;;;;20.27;12.17;;;;;;;;;;6021838;29;20313;-68
2023/12/10 03:11:00;;;;;;;17.70;11.07;;;;;;;;;;6012200;29;20323;-68
2023/12/10 03:14:06;;;;;;;18.30;10.83;;;;;;;;;;6021673;29;20298;-68
2023/12/10 03:17:09;;;;;;;19.20;11.87;;;;;;;;;;6018619;29;20310;-69
2023/12/10 03:20:14;;;;;;;17.20;10.80;;;;;;;;;;6026207;29;20305;-69
2023/12/10 03:23:18;;;;;;;20.70;11.13;;;;;;;;;;6029035;29;20305;-69
2023/12/10 03:26:21;;;;;;;15.00;10.73;;;;;;;;;;6027520;29;20304;-68
2023/12/10 03:29:27;;;;;;;20.10;11.27;;;;;;;;;;6027131;29;20309;-68
2023/12/10 03:32:31;;;;;;;19.53;11.50;;;;;;;;;;6027302;29;20307;-68
2023/12/10 03:35:35;;;;;;;18.40;10.50;;;;;;;;;;6027667;29;20317;-69
2023/12/10 03:38:39;;;;;;;19.13;10.20;;;;;;;;;;6022008;29;20294;-70
2023/12/10 03:41:43;;;;;;;15.67;10.57;;;;;;;;;;6011795;29;20308;-70
2023/12/10 03:44:48;;;;;;;14.43;9.70;;;;;;;;;;6013681;29;20299;-69
2023/12/10 03:47:52;;;;;;;13.53;9.87;;;;;;;;;;6019699;29;20296;-71
2023/12/10 03:50:56;;;;;;;15.50;9.73;;;;;;;;;;6008640;29;20608;-68
2023/12/10 03:54:01;;;;;;;17.87;8.97;;;;;;;;;;5989282;29;20492;-69
2023/12/10 03:57:05;;;;;;;19.70;9.67;;;;;;;;;;6009707;29;20294;-69
2023/12/10 04:00:11;;;;;;;17.20;9.87;;;;;;;;;;6010898;29;20322;-68
2023/12/10 04:03:15;;;;;;;16.87;10.30;;;;;;;;;;6007853;29;20296;-68
2023/12/10 04:06:20;;;;;;;16.30;10.73;;;;;;;;;;6001681;29;20607;-69
2023/12/10 04:09:23;;;;;;;17.03;10.70;;;;;;;;;;6032809;29;20302;-68
2023/12/10 04:12:27;;;;;;;15.17;10.23;;;;;;;;;;6008503;29;20436;-68
2023/12/10 04:15:33;;;;;;;16.27;10.20;;;;;;;;;;5995951;29;20301;-69
2023/12/10 04:18:37;;;;;;;18.60;10.30;;;;;;;;;;5999172;29;20302;-69
2023/12/10 04:21:41;;;;;;;15.33;11.00;;;;;;;;;;6010827;29;20295;-70
2023/12/10 04:24:45;;;;;;;17.90;11.17;;;;;;;;;;6023851;29;20239;-68
2023/12/10 04:27:49;;;;;;;17.33;10.40;;;;;;;;;;6014896;29;20410;-69
2023/12/10 04:30:54;;;;;;;14.77;10.17;;;;;;;;;;6021168;29;20303;-68
2023/12/10 04:34:00;;;;;;;15.50;9.73;;;;;;;;;;6020661;29;20304;-70
2023/12/10 04:37:05;;;;;;;14.00;9.47;;;;;;;;;;6014245;29;20305;-68
2023/12/10 04:40:10;;;;;;;13.90;9.90;;;;;;;;;;5998860;29;20372;-70
2023/12/10 04:43:14;;;;;;;14.00;9.43;;;;;;;;;;5998672;29;20297;-69
2023/12/10 04:46:20;;;;;;;16.53;9.57;;;;;;;;;;5998224;29;20523;-68
2023/12/10 04:49:24;;;;;;;14.47;9.20;;;;;;;;;;6003085;29;20303;-69
2023/12/10 04:52:28;;;;;;;17.27;9.83;;;;;;;;;;5999005;29;20555;-69
2023/12/10 04:55:32;;;;;;;19.30;9.90;;;;;;;;;;5998434;29;20312;-69
2023/12/10 04:58:37;;;;;;;15.03;9.60;;;;;;;;;;6020760;29;20299;-68
2023/12/10 05:01:42;;;;;;;16.13;10.00;;;;;;;;;;6020576;29;20302;-70
2023/12/10 05:04:46;;;;;;;17.33;10.13;;;;;;;;;;6025559;29;20301;-67
2023/12/10 05:07:50;;;;;;;15.57;10.73;;;;;;;;;;6020705;29;20304;-70
2023/12/10 05:10:55;;;;;;;16.30;10.67;;;;;;;;;;6014992;29;20299;-68
2023/12/10 05:13:59;;;;;;;17.73;9.77;;;;;;;;;;5998372;29;20302;-70
2023/12/10 05:17:04;;;;;;;16.47;9.63;;;;;;;;;;5998700;29;20320;-69
2023/12/10 05:20:09;;;;;;;16.73;10.27;;;;;;;;;;5997652;29;20389;-68
2023/12/10 05:23:13;;;;;;;17.07;10.47;;;;;;;;;;5990552;29;20500;-69
2023/12/10 05:26:17;;;;;;;14.83;10.37;;;;;;;;;;5997897;29;20305;-69
2023/12/10 05:29:21;;;;;;;17.87;11.13;;;;;;;;;;5999379;29;20320;-69
2023/12/10 05:32:27;;;;;;;18.83;10.90;;;;;;;;;;6007972;29;20304;-69
2023/12/10 05:35:32;;;;;;;18.80;10.53;;;;;;;;;;6001886;29;20308;-69
2023/12/10 05:38:35;;;;;;;16.53;10.67;;;;;;;;;;6002221;29;20304;-68
2023/12/10 05:41:39;;;;;;;20.60;11.37;;;;;;;;;;6007108;29;20308;-69
2023/12/10 05:44:43;;;;;;;19.60;10.97;;;;;;;;;;6001096;29;20301;-69
2023/12/10 05:47:49;;;;;;;22.43;11.13;;;;;;;;;;6002064;29;20296;-69
2023/12/10 05:50:53;;;;;;;20.77;11.93;;;;;;;;;;6000850;29;20302;-69
2023/12/10 05:53:57;;;;;;;21.90;11.60;;;;;;;;;;6001698;29;20300;-69
2023/12/10 05:57:01;;;;;;;20.60;11.23;;;;;;;;;;6011767;29;20305;-68
2023/12/10 06:00:07;;;;;;;20.03;11.50;;;;;;;;;;6023893;29;20390;-68
2023/12/10 06:03:12;;;;;;;22.77;12.07;;;;;;;;;;6024553;29;20303;-69
2023/12/10 06:06:16;;;;;;;20.63;12.33;;;;;;;;;;6028142;29;20302;-70
2023/12/10 06:09:20;;;;;;;20.60;11.77;;;;;;;;;;6024142;29;20337;-68
2023/12/10 06:12:24;;;;;;;23.30;11.77;;;;;;;;;;6007690;29;20296;-69
2023/12/10 06:15:28;;;;;;;21.50;12.17;;;;;;;;;;6000628;29;20305;-68
2023/12/10 06:18:34;;;;;;;22.00;11.70;;;;;;;;;;6000830;29;20306;-68
2023/12/10 06:21:38;;;;;;;23.50;12.97;;;;;;;;;;6000441;29;20302;-68
2023/12/10 06:24:42;;;;;;;21.53;12.40;;;;;;;;;;6000212;29;20297;-69
2023/12/10 06:27:46;;;;;;;22.13;12.23;;;;;;;;;;6001030;29;20300;-69
2023/12/10 06:30:50;;;;;;;20.77;12.70;;;;;;;;;;6000265;29;20298;-69
2023/12/10 06:33:55;;;;;;;23.43;12.27;;;;;;;;;;6000513;29;20484;-69
2023/12/10 06:36:59;;;;;;;23.63;12.23;;;;;;;;;;6000526;29;20305;-68
2023/12/10 06:40:05;;;;;;;25.13;12.67;;;;;;;;;;5999469;29;20363;-69
2023/12/10 06:43:09;;;;;;;24.07;12.60;;;;;;;;;;6000457;29;20478;-69
2023/12/10 06:46:17;;;;;;;23.30;12.57;;;;;;;;;;6000227;29;20316;-69
2023/12/10 06:49:23;;;;;;;20.23;12.03;;;;;;;;;;5999779;29;20302;-69
2023/12/10 06:52:27;;;;;;;22.40;13.00;;;;;;;;;;6022799;29;20300;-68
2023/12/10 06:55:31;;;;;;;21.50;12.43;;;;;;;;;;6022082;29;20298;-68
2023/12/10 06:58:35;;;;;;;23.53;13.07;;;;;;;;;;6022311;29;20312;-68
2023/12/10 07:01:39;;;;;;;24.20;12.63;;;;;;;;;;6020620;29;20536;-69
2023/12/10 07:04:45;;;;;;;24.90;13.43;;;;;;;;;;6021445;29;20319;-68
2023/12/10 07:07:49;;;;;;;22.03;12.33;;;;;;;;;;6022293;29;20304;-68
2023/12/10 07:10:52;;;;;;;21.40;13.10;;;;;;;;;;6016967;29;20302;-68
2023/12/10 07:13:56;;;;;;;20.63;12.30;;;;;;;;;;5999543;29;20305;-68
2023/12/10 07:17:00;;;;;;;22.17;13.47;;;;;;;;;;6000128;29;20489;-68
2023/12/10 07:20:09;;;;;;;23.20;12.87;;;;;;;;;;5999309;29;20316;-68
2023/12/10 07:23:13;;;;;;;24.47;12.50;;;;;;;;;;6005093;29;20609;-70
2023/12/10 07:26:22;;;;;;;21.37;12.37;;;;;;;;;;5997562;29;20311;-68
2023/12/10 07:29:26;;;;;;;21.20;12.10;;;;;;;;;;6010545;29;20399;-68
2023/12/10 07:32:30;;;;;;;20.70;12.20;;;;;;;;;;5998709;29;20314;-68
2023/12/10 07:35:35;;;;;;;24.60;13.10;;;;;;;;;;5999054;29;20541;-68
2023/12/10 07:38:40;;;;;;;24.63;12.90;;;;;;;;;;5999406;29;20490;-69
2023/12/10 07:41:43;;;;;;;25.67;12.93;;;;;;;;;;5998751;29;20301;-69
2023/12/10 07:44:47;;;;;;;20.13;12.43;;;;;;;;;;5998984;29;20289;-69
2023/12/10 07:47:51;;;;;;;21.30;12.27;;;;;;;;;;6004035;29;20320;-69
2023/12/10 07:50:58;;;;;;;23.47;12.80;;;;;;;;;;6007224;29;20496;-69
2023/12/10 07:54:02;;;;;;;23.83;11.87;;;;;;;;;;6020879;29;20296;-68
2023/12/10 07:57:06;;;;;;;23.47;12.67;;;;;;;;;;6026509;29;20588;-68
2023/12/10 08:00:11;;;;;;;21.80;12.03;;;;;;;;;;6000469;29;20305;-68
2023/12/10 08:03:15;;;;;;;22.80;12.87;;;;;;;;;;6021469;29;20289;-69
2023/12/10 08:06:21;;;;;;;21.10;12.50;;;;;;;;;;6020422;29;20304;-69
2023/12/10 08:09:25;;;;;;;23.97;12.37;;;;;;;;;;6020731;29;20309;-68
2023/12/10 08:12:28;;;;;;;26.63;12.90;;;;;;;;;;6004140;29;20330;-68
2023/12/10 08:15:33;;;;;;;27.80;12.47;;;;;;;;;;5998450;29;20296;-68
2023/12/10 08:18:37;;;;;;;22.93;12.77;;;;;;;;;;5998718;29;20300;-68
2023/12/10 08:21:44;;;;;;;24.60;13.03;;;;;;;;;;5998118;29;20311;-68
2023/12/10 08:24:48;;;;;;;24.67;12.87;;;;;;;;;;5998360;29;20296;-68
2023/12/10 08:27:52;;;;;;;27.07;12.73;;;;;;;;;;5998576;29;20297;-69
2023/12/10 08:30:56;;;;;;;25.17;12.80;;;;;;;;;;5998381;29;20292;-69
2023/12/10 08:34:00;;;;;;;26.10;13.07;;;;;;;;;;6003095;29;20308;-68
2023/12/10 08:37:06;;;;;;;24.13;12.10;;;;;;;;;;5998304;29;20299;-67
2023/12/10 08:40:10;;;;;;;27.80;13.63;;;;;;;;;;5997871;29;20320;-68
2023/12/10 08:43:14;;;;;;;25.27;13.07;;;;;;;;;;5998051;29;20301;-67
2023/12/10 08:46:18;;;;;;;24.80;13.07;;;;;;;;;;5997830;29;20304;-69
2023/12/10 08:49:22;;;;;;;24.83;12.20;;;;;;;;;;5997914;29;20316;-66
2023/12/10 08:52:27;;;;;;;25.23;13.47;;;;;;;;;;5998726;29;20304;-66
2023/12/10 08:55:31;;;;;;;25.33;12.57;;;;;;;;;;5997909;29;20301;-68
2023/12/10 08:58:35;;;;;;;25.37;12.97;;;;;;;;;;6019761;29;20340;-68
2023/12/10 09:01:39;;;;;;;26.63;11.80;;;;;;;;;;6020126;29;20319;-67
2023/12/10 09:04:43;;;;;;;23.00;11.73;;;;;;;;;;6023439;29;20300;-66
2023/12/10 09:07:49;;;;;;;25.30;11.90;;;;;;;;;;6024900;29;20593;-66
2023/12/10 09:10:53;;;;;;;24.33;12.40;;;;;;;;;;6019662;29;20297;-67
2023/12/10 09:13:57;;;;;;;24.60;12.13;;;;;;;;;;6001869;29;20305;-68
2023/12/10 09:17:01;;;;;;;24.03;12.43;;;;;;;;;;5993679;29;20316;-68
2023/12/10 09:20:06;;;;;;;28.85;14.20;;;;;;;;;;6001279;29;20519;-68
2023/12/10 09:23:11;;;;;;;26.97;12.37;;;;;;;;;;6002243;29;20341;-68
2023/12/10 09:26:15;;;;;;;29.30;13.13;;;;;;;;;;6001912;29;20319;-68
2023/12/10 09:29:19;;;;;;;23.90;12.77;;;;;;;;;;6000104;29;20518;-68
2023/12/10 09:32:26;;;;;;;24.60;12.93;;;;;;;;;;6001926;29;20309;-68
2023/12/10 09:35:31;;;;;;;25.37;12.67;;;;;;;;;;6001489;29;20513;-68
2023/12/10 09:38:36;;;;;;;23.17;12.37;;;;;;;;;;6001804;29;20321;-69
2023/12/10 09:41:40;;;;;;;23.50;11.93;;;;;;;;;;6001504;29;20305;-69
2023/12/10 09:44:44;;;;;;;21.20;11.63;;;;;;;;;;6000675;29;20304;-69
2023/12/10 09:47:48;;;;;;;22.83;11.60;;;;;;;;;;6001669;29;20312;-68
2023/12/10 09:50:53;;;;;;;21.63;12.13;;;;;;;;;;6001215;29;20295;-70
2023/12/10 09:53:59;;;;;;;24.67;11.43;;;;;;;;;;6001398;29;20297;-68
2023/12/10 09:57:02;;;;;;;20.17;11.43;;;;;;;;;;6001430;29;20475;-68
2023/12/10 10:00:07;;;;;;;25.80;12.37;;;;;;;;;;6002645;29;20301;-70
2023/12/10 10:03:12;;;;;;;23.30;11.90;;;;;;;;;;6001298;29;20290;-68
2023/12/10 10:06:16;;;;;;;23.27;12.33;;;;;;;;;;6000954;29;20300;-68
2023/12/10 10:09:22;;;;;;;26.80;12.43;;;;;;;;;;6000950;29;20301;-66
2023/12/10 10:12:37;;;;;;;26.27;12.33;;;;;;;;;;6019760;29;20293;-69
2023/12/10 10:15:41;;;;;;;21.93;11.87;;;;;;;;;;6022955;29;20300;-69
2023/12/10 10:18:48;;;;;;;24.17;11.57;;;;;;;;;;6022434;29;20508;-69
2023/12/10 10:21:52;;;;;;;21.80;10.20;;;;;;;;;;6023656;29;20299;-70
2023/12/10 10:24:58;;;;;;;22.43;11.63;;;;;;;;;;6017762;29;20342;-69
2023/12/10 10:28:02;;;;;;;21.87;11.30;;;;;;;;;;6001078;29;20310;-70
2023/12/10 10:31:07;;;;;;;24.30;11.77;;;;;;;;;;6000393;29;20322;-69
2023/12/10 10:34:11;;;;;;;25.13;12.10;;;;;;;;;;6000145;29;20313;-69
2023/12/10 10:37:15;;;;;;;22.67;11.80;;;;;;;;;;6000886;29;20295;-68
2023/12/10 10:40:21;;;;;;;22.20;11.37;;;;;;;;;;6000289;29;20310;-69
2023/12/10 10:43:25;;;;;;;25.30;12.30;;;;;;;;;;6000507;29;20599;-69
2023/12/10 10:46:29;;;;;;;23.47;12.57;;;;;;;;;;6000058;29;20309;-68
2023/12/10 10:49:34;;;;;;;20.20;11.43;;;;;;;;;;6000092;29;20606;-68
2023/12/10 10:52:39;;;;;;;21.90;11.23;;;;;;;;;;6000150;29;20584;-69
2023/12/10 10:55:48;;;;;;;21.00;12.03;;;;;;;;;;5999966;29;20298;-69
2023/12/10 10:58:52;;;;;;;24.27;12.00;;;;;;;;;;6024171;29;20322;-69
2023/12/10 11:01:55;;;;;;;25.33;11.60;;;;;;;;;;6007966;29;20300;-69
2023/12/10 11:05:00;;;;;;;18.23;11.27;;;;;;;;;;5999464;29;20294;-69
2023/12/10 11:08:05;;;;;;;24.63;11.93;;;;;;;;;;5999552;29;20309;-69
2023/12/10 11:11:13;;;;;;;21.43;12.33;;;;;;;;;;6006992;29;20238;-69
2023/12/10 11:14:21;;;;;;;20.53;11.27;;;;;;;;;;6021879;29;20301;-69
2023/12/10 11:17:24;;;;;;;22.83;11.40;;;;;;;;;;6022287;29;20297;-69
2023/12/10 11:20:33;;;;;;;20.53;11.13;;;;;;;;;;6021346;29;20305;-69
2023/12/10 11:23:37;;;;;;;22.70;11.63;;;;;;;;;;6022028;29;20301;-68
2023/12/10 11:26:43;;;;;;;20.77;11.37;;;;;;;;;;6020789;29;20295;-70
2023/12/10 11:29:47;;;;;;;23.23;11.87;;;;;;;;;;6035377;29;20318;-68
2023/12/10 11:32:51;;;;;;;20.73;11.80;;;;;;;;;;6022046;29;20305;-69
2023/12/10 11:35:56;;;;;;;22.57;11.73;;;;;;;;;;6021689;29;20305;-69
2023/12/10 11:39:20;;;;;;;23.47;12.70;;;;;;;;;;6021276;29;20314;-69
2023/12/10 11:42:27;;;;;;;25.53;12.77;;;;;;;;;;6022118;29;20304;-69
2023/12/10 11:45:31;;;;;;;24.40;12.43;;;;;;;;;;6021202;29;20296;-69
2023/12/10 11:48:35;;;;;;;22.87;12.07;;;;;;;;;;6022166;29;20295;-70
2023/12/10 11:51:41;;;;;;;19.83;12.10;;;;;;;;;;6020913;29;20308;-69
2023/12/10 11:54:45;;;;;;;22.70;12.03;;;;;;;;;;6012232;29;20301;-70
2023/12/10 11:57:50;;;;;;;22.07;11.73;;;;;;;;;;6021226;29;20298;-70
2023/12/10 12:00:58;;;;;;;25.53;12.83;;;;;;;;;;6010723;29;20618;-69
2023/12/10 12:04:03;;;;;;;23.23;11.43;;;;;;;;;;6020822;29;20301;-68
2023/12/10 12:07:07;;;;;;;23.00;11.83;;;;;;;;;;6021209;29;20311;-68
2023/12/10 12:10:12;;;;;;;20.73;11.90;;;;;;;;;;6020603;29;20313;-68
2023/12/10 12:13:18;;;;;;;23.27;11.53;;;;;;;;;;5998992;29;20306;-68
2023/12/10 12:16:22;;;;;;;22.67;12.17;;;;;;;;;;5998595;29;20296;-68
2023/12/10 12:19:27;;;;;;;22.57;11.87;;;;;;;;;;5998028;29;20297;-69
2023/12/10 12:22:31;;;;;;;23.90;12.23;;;;;;;;;;5998733;29;20301;-69
2023/12/10 12:25:37;;;;;;;24.27;12.90;;;;;;;;;;5997933;29;20302;-69
2023/12/10 12:28:43;;;;;;;20.73;12.00;;;;;;;;;;5998454;29;20310;-69
2023/12/10 12:31:50;;;;;;;22.00;11.90;;;;;;;;;;5997938;29;20639;-69
2023/12/10 12:35:14;;;;;;;24.67;13.37;;;;;;;;;;5997973;29;20309;-69
2023/12/10 12:38:18;;;;;;;24.10;12.50;;;;;;;;;;5998087;29;20301;-68
2023/12/10 12:41:22;;;;;;;27.77;13.37;;;;;;;;;;5997959;29;20300;-69
2023/12/10 12:44:27;;;;;;;22.50;12.17;;;;;;;;;;5996901;29;20470;-69
2023/12/10 12:47:31;;;;;;;29.33;13.17;;;;;;;;;;5998385;29;20300;-68
2023/12/10 12:50:36;;;;;;;24.27;12.63;;;;;;;;;;6011586;29;20384;-69
2023/12/10 12:53:40;;;;;;;25.30;13.50;;;;;;;;;;5998416;29;20289;-68
2023/12/10 12:57:04;;;;;;;24.30;13.03;;;;;;;;;;5996652;29;20297;-68
2023/12/10 13:00:11;;;;;;;25.27;12.90;;;;;;;;;;6009626;29;20296;-68
2023/12/10 13:03:15;;;;;;;26.10;12.97;;;;;;;;;;6019056;29;20293;-67
2023/12/10 13:06:19;;;;;;;23.00;12.63;;;;;;;;;;6019688;29;20400;-68
2023/12/10 13:09:23;;;;;;;26.63;12.73;;;;;;;;;;6019742;29;20485;-68
2023/12/10 13:12:28;;;;;;;26.97;12.87;;;;;;;;;;6003985;29;20551;-69
2023/12/10 13:15:33;;;;;;;25.47;13.10;;;;;;;;;;5997558;29;20304;-69
2023/12/10 13:18:37;;;;;;;30.83;13.50;;;;;;;;;;5997874;29;20292;-69
2023/12/10 13:21:42;;;;;;;23.00;13.30;;;;;;;;;;5996355;29;20309;-68
2023/12/10 13:24:46;;;;;;;26.73;13.10;;;;;;;;;;6011282;29;20501;-68
2023/12/10 13:27:50;;;;;;;28.53;12.87;;;;;;;;;;6012118;29;20469;-68
2023/12/10 13:30:55;;;;;;;25.20;12.67;;;;;;;;;;5997470;29;20307;-69
2023/12/10 13:34:00;;;;;;;24.17;12.97;;;;;;;;;;5997373;29;20310;-69
2023/12/10 13:37:04;;;;;;;25.80;13.03;;;;;;;;;;5997787;29;20473;-69
2023/12/10 13:40:09;;;;;;;22.03;11.77;;;;;;;;;;5997055;29;20318;-68
2023/12/10 13:43:14;;;;;;;27.53;12.77;;;;;;;;;;6017627;29;20301;-69
2023/12/10 13:46:20;;;;;;;22.60;11.83;;;;;;;;;;6019766;29;20321;-69
2023/12/10 13:49:24;;;;;;;25.07;12.97;;;;;;;;;;6019569;29;20296;-69
2023/12/10 13:52:28;;;;;;;22.43;12.30;;;;;;;;;;6023794;29;20309;-69
2023/12/10 13:55:32;;;;;;;27.40;12.97;;;;;;;;;;6023814;29;20299;-69
2023/12/10 13:58:36;;;;;;;21.30;12.13;;;;;;;;;;6023589;29;20301;-69
2023/12/10 14:01:42;;;;;;;21.20;11.60;;;;;;;;;;6023363;29;20302;-68
2023/12/10 14:04:47;;;;;;;24.10;13.13;;;;;;;;;;6023758;29;20295;-67
2023/12/10 14:07:51;;;;;;;23.93;12.13;;;;;;;;;;6023188;29;20305;-69
2023/12/10 14:10:55;;;;;;;20.07;11.63;;;;;;;;;;6017961;29;20310;-69
2023/12/10 14:13:59;;;;;;;19.00;11.07;;;;;;;;;;6000537;29;20309;-68
2023/12/10 14:17:04;;;;;;;21.53;12.13;;;;;;;;;;6000918;29;20302;-68
2023/12/10 14:20:09;;;;;;;23.57;11.90;;;;;;;;;;6000242;29;20331;-69
2023/12/10 14:23:13;;;;;;;22.10;11.17;;;;;;;;;;6000917;29;20310;-72
2023/12/10 14:26:17;;;;;;;20.23;11.87;;;;;;;;;;6000081;29;20299;-68
2023/12/10 14:29:21;;;;;;;23.17;11.83;;;;;;;;;;6000641;29;20595;-68
2023/12/10 14:32:27;;;;;;;22.00;11.67;;;;;;;;;;6000724;29;20317;-69
2023/12/10 14:35:30;;;;;;;21.87;12.43;;;;;;;;;;6000158;29;20301;-68
2023/12/10 14:38:34;;;;;;;20.53;12.13;;;;;;;;;;6000647;29;20437;-71
2023/12/10 14:41:38;;;;;;;22.60;11.57;;;;;;;;;;6005101;29;20637;-67
2023/12/10 14:44:42;;;;;;;22.57;11.73;;;;;;;;;;6021794;29;20295;-71
2023/12/10 14:47:47;;;;;;;20.90;12.23;;;;;;;;;;6022648;29;20302;-67
2023/12/10 14:50:51;;;;;;;22.20;11.77;;;;;;;;;;6022423;29;20310;-68
2023/12/10 14:53:56;;;;;;;22.23;11.27;;;;;;;;;;6022370;29;20324;-69
2023/12/10 14:57:00;;;;;;;23.47;10.50;;;;;;;;;;6022302;29;20301;-69
2023/12/10 15:00:05;;;;;;;21.10;11.17;;;;;;;;;;6021829;29;20304;-71
2023/12/10 15:03:11;;;;;;;20.33;11.13;;;;;;;;;;6021731;29;20296;-67
2023/12/10 15:06:15;;;;;;;23.70;13.17;;;;;;;;;;6021571;29;20613;-69
2023/12/10 15:09:19;;;;;;;23.97;12.93;;;;;;;;;;6022068;29;20352;-68
2023/12/10 15:12:23;;;;;;;21.00;11.27;;;;;;;;;;6005679;29;20632;-69
2023/12/10 15:15:29;;;;;;;22.33;11.63;;;;;;;;;;5999003;29;20302;-67
2023/12/10 15:18:34;;;;;;;21.00;11.50;;;;;;;;;;6005814;29;20481;-68
2023/12/10 15:21:39;;;;;;;20.70;11.57;;;;;;;;;;5999166;29;20310;-65
2023/12/10 15:24:42;;;;;;;25.07;12.30;;;;;;;;;;5997549;29;20487;-67
2023/12/10 15:27:47;;;;;;;20.47;11.33;;;;;;;;;;5999585;29;20436;-66
2023/12/10 15:30:50;;;;;;;25.37;11.83;;;;;;;;;;6003676;29;20594;-65
2023/12/10 15:33:56;;;;;;;19.87;11.67;;;;;;;;;;6021414;29;20311;-70
2023/12/10 15:37:00;;;;;;;23.00;11.70;;;;;;;;;;6021569;29;20298;-69
2023/12/10 15:40:04;;;;;;;21.13;11.90;;;;;;;;;;6021319;29;20344;-67
2023/12/10 15:43:08;;;;;;;20.37;10.83;;;;;;;;;;6021349;29;20306;-68
2023/12/10 15:46:12;;;;;;;20.00;11.83;;;;;;;;;;6020739;29;20316;-66
2023/12/10 15:49:18;;;;;;;23.97;12.17;;;;;;;;;;6035043;29;20388;-70
2023/12/10 15:52:23;;;;;;;23.17;12.10;;;;;;;;;;6021648;29;20310;-72
2023/12/10 15:55:39;;;;;;;20.80;12.03;;;;;;;;;;6019567;29;20305;-67
2023/12/10 15:58:43;;;;;;;22.30;12.30;;;;;;;;;;6035461;29;20438;-66
2023/12/10 16:01:47;;;;;;;23.63;12.37;;;;;;;;;;6020762;29;20447;-65
2023/12/10 16:04:52;;;;;;;19.77;11.67;;;;;;;;;;6020500;29;20294;-65
2023/12/10 16:07:57;;;;;;;24.63;12.50;;;;;;;;;;6020966;29;20306;-70
2023/12/10 16:11:01;;;;;;;23.13;12.43;;;;;;;;;;6014490;29;20298;-68
2023/12/10 16:14:06;;;;;;;20.90;11.60;;;;;;;;;;5997520;29;20314;-71
2023/12/10 16:17:10;;;;;;;23.03;11.87;;;;;;;;;;5998354;29;20570;-69
2023/12/10 16:20:16;;;;;;;22.90;11.97;;;;;;;;;;5998126;29;20335;-66
2023/12/10 16:23:20;;;;;;;21.17;11.90;;;;;;;;;;5998218;29;20293;-67
2023/12/10 16:26:24;;;;;;;23.90;12.40;;;;;;;;;;5997888;29;20350;-68
2023/12/10 16:29:28;;;;;;;19.27;11.40;;;;;;;;;;5997750;29;20448;-66
2023/12/10 16:32:32;;;;;;;20.17;11.80;;;;;;;;;;5998669;29;20314;-68
2023/12/10 16:35:37;;;;;;;21.03;12.00;;;;;;;;;;5997653;29;20303;-66
2023/12/10 16:38:41;;;;;;;22.33;12.50;;;;;;;;;;5997964;29;20472;-72
2023/12/10 16:41:45;;;;;;;24.60;12.17;;;;;;;;;;5997789;29;20295;-67
2023/12/10 16:44:50;;;;;;;23.03;12.63;;;;;;;;;;5997479;29;20293;-68
2023/12/10 16:47:54;;;;;;;21.67;12.13;;;;;;;;;;5998079;29;20612;-66
2023/12/10 16:51:00;;;;;;;25.17;13.13;;;;;;;;;;5997550;29;20619;-69
2023/12/10 16:54:04;;;;;;;18.77;12.10;;;;;;;;;;5997487;29;20306;-69
2023/12/10 16:57:08;;;;;;;21.93;12.40;;;;;;;;;;5998246;29;20297;-68
2023/12/10 17:00:13;;;;;;;19.30;11.97;;;;;;;;;;6009950;29;20464;-68
2023/12/10 17:03:17;;;;;;;25.30;13.20;;;;;;;;;;6020088;29;20301;-67
2023/12/10 17:06:25;;;;;;;27.33;13.17;;;;;;;;;;6019801;29;20347;-71
2023/12/10 17:09:29;;;;;;;21.20;12.43;;;;;;;;;;6019747;29;20317;-67
2023/12/10 17:12:33;;;;;;;20.10;12.00;;;;;;;;;;6002640;29;20309;-72
2023/12/10 17:15:36;;;;;;;27.00;12.60;;;;;;;;;;5996904;29;20310;-69
2023/12/10 17:18:41;;;;;;;23.77;12.97;;;;;;;;;;6018157;29;20304;-70
2023/12/10 17:21:47;;;;;;;20.50;12.53;;;;;;;;;;6019388;29;20298;-68
2023/12/10 17:24:51;;;;;;;20.30;12.37;;;;;;;;;;6021854;29;20301;-70
2023/12/10 17:27:54;;;;;;;24.30;12.50;;;;;;;;;;6024028;29;20594;-68
2023/12/10 17:30:58;;;;;;;21.20;12.57;;;;;;;;;;6024145;29;20317;-73
2023/12/10 17:34:02;;;;;;;21.27;12.27;;;;;;;;;;6023803;29;20317;-67
2023/12/10 17:37:08;;;;;;;23.27;12.47;;;;;;;;;;6024377;29;20433;-71
2023/12/10 17:40:13;;;;;;;21.83;12.53;;;;;;;;;;6024197;29;20323;-65
2023/12/10 17:43:17;;;;;;;19.70;11.63;;;;;;;;;;6023557;29;20578;-66
2023/12/10 17:46:21;;;;;;;20.93;12.33;;;;;;;;;;6023673;29;20310;-66
2023/12/10 17:49:25;;;;;;;20.03;12.00;;;;;;;;;;6023589;29;20595;-70
2023/12/10 17:52:30;;;;;;;18.60;11.70;;;;;;;;;;6024369;29;20314;-71
2023/12/10 17:55:34;;;;;;;18.47;11.77;;;;;;;;;;6023829;29;20479;-70
2023/12/10 17:58:38;;;;;;;20.40;11.90;;;;;;;;;;6022205;29;20558;-71